Shawnee Hills, Ohio
Current Conditions -  °F | °C
As of 6:53 PM on Wednesday 26 Nov 2014 (Local Time) from KOSU Reporting Station
Overcast Overcast  
Wind Chill: 28°   Ceiling: 3100
Heat Index: 34°   Visibility: 9mi
Dew Point: 26°   Wind: 7mph
Humidity: 73%   Direction: 330°NNW
Pressure: 30.04"   Gusts: NA
Location:  40.1701°N, 83.0808°W
Report Text: KOSU 262353Z 33006KT 9SM OVC031 01/M03 A3004 RMK AO2 SLP181 T00111033 10028 20011 50004
Loading
Personal Weather Stations






























Interactive Weather Map New forecast layout! Learn more

10-Day Weather Forecast

Advertisements
Track Severe Weather on mobile